createdAt,value
2023-02-07T00:01:29.972Z,3.50
2023-02-07T00:03:58.760Z,3.70
2023-02-07T00:06:30.472Z,4.27
2023-02-07T00:09:00.333Z,3.63
2023-02-07T00:11:28.070Z,3.70
2023-02-07T00:13:58.806Z,2.73
2023-02-07T00:16:26.462Z,3.77
2023-02-07T00:18:55.206Z,3.40
2023-02-07T00:21:24.993Z,3.23
2023-02-07T00:23:53.421Z,3.07
2023-02-07T00:26:23.796Z,3.57
2023-02-07T00:28:52.637Z,3.50
2023-02-07T00:31:30.030Z,3.23
2023-02-07T00:34:00.697Z,3.27
2023-02-07T00:36:31.390Z,3.80
2023-02-07T00:39:00.855Z,3.53
2023-02-07T00:41:28.482Z,3.50
2023-02-07T00:43:55.937Z,3.43
2023-02-07T00:46:23.155Z,3.40
2023-02-07T00:48:51.009Z,3.77
2023-02-07T00:51:18.389Z,3.33
2023-02-07T00:53:45.756Z,4.00
2023-02-07T00:56:14.137Z,4.23
2023-02-07T00:58:41.664Z,3.27
2023-02-07T01:01:09.071Z,4.10
2023-02-07T01:03:36.058Z,3.20
2023-02-07T01:06:03.132Z,4.10
2023-02-07T01:08:30.212Z,4.10
2023-02-07T01:10:57.331Z,4.50
2023-02-07T01:13:24.332Z,4.00
2023-02-07T01:15:51.478Z,4.10
2023-02-07T01:18:18.496Z,4.50
2023-02-07T01:20:45.718Z,4.20
2023-02-07T01:23:14.873Z,3.90
2023-02-07T01:25:44.151Z,4.03
2023-02-07T01:28:12.278Z,4.27
2023-02-07T01:30:41.643Z,4.40
2023-02-07T01:33:09.435Z,4.00
2023-02-07T01:35:38.839Z,4.80
2023-02-07T01:38:06.038Z,5.50
2023-02-07T01:40:38.139Z,5.60
2023-02-07T01:43:05.086Z,5.87
2023-02-07T01:45:39.571Z,5.80
2023-02-07T01:48:32.813Z,5.30
2023-02-07T01:51:04.335Z,5.80
2023-02-07T01:53:33.637Z,5.20
2023-02-07T01:56:04.858Z,5.27
2023-02-07T01:58:34.214Z,4.53
2023-02-07T02:01:11.281Z,5.03
2023-02-07T02:03:45.202Z,5.00
2023-02-07T02:06:13.822Z,5.37
2023-02-07T02:08:41.165Z,5.53
2023-02-07T02:11:19.921Z,5.57
2023-02-07T02:14:08.849Z,5.17
2023-02-07T02:16:44.828Z,5.70
2023-02-07T02:19:20.174Z,6.13
2023-02-07T02:22:33.058Z,6.30
2023-02-07T02:25:02.623Z,5.83
2023-02-07T02:27:41.206Z,5.70
2023-02-07T02:31:11.087Z,5.80
2023-02-07T02:34:17.264Z,5.80
2023-02-07T02:37:12.796Z,5.30
2023-02-07T02:40:05.217Z,5.50
2023-02-07T02:42:44.301Z,5.20
2023-02-07T02:45:19.475Z,5.87
2023-02-07T02:47:50.004Z,6.20
2023-02-07T02:50:29.829Z,7.03
2023-02-07T02:52:56.918Z,6.67
2023-02-07T02:56:08.779Z,6.43
2023-02-07T02:59:17.165Z,7.33
2023-02-07T03:01:54.567Z,7.40
2023-02-07T03:05:08.322Z,8.10
2023-02-07T03:07:43.893Z,7.33
2023-02-07T03:10:32.957Z,7.37
2023-02-07T03:13:32.149Z,7.40
2023-02-07T03:16:13.743Z,8.40
2023-02-07T03:18:55.188Z,7.97
2023-02-07T03:21:33.046Z,6.73
2023-02-07T03:24:06.379Z,8.30
2023-02-07T03:26:34.720Z,7.60
2023-02-07T03:29:03.196Z,8.20
2023-02-07T03:31:32.645Z,7.37
2023-02-07T03:34:09.940Z,7.57
2023-02-07T03:37:15.053Z,8.00
2023-02-07T03:39:42.187Z,7.83
2023-02-07T03:42:33.313Z,7.83
2023-02-07T03:45:02.076Z,6.93
2023-02-07T03:47:29.944Z,8.50
2023-02-07T03:49:56.993Z,8.47
2023-02-07T03:52:23.981Z,7.73
2023-02-07T03:54:50.909Z,7.57
2023-02-07T03:57:17.920Z,7.90
2023-02-07T03:59:44.881Z,7.53
2023-02-07T04:02:12.043Z,7.93
2023-02-07T04:04:40.277Z,7.30
2023-02-07T04:07:07.273Z,8.03
2023-02-07T04:09:34.225Z,7.80
2023-02-07T04:12:01.792Z,8.13
2023-02-07T04:14:29.016Z,8.50
2023-02-07T04:16:55.915Z,8.40
2023-02-07T04:19:23.151Z,8.57
2023-02-07T04:21:50.161Z,8.83
2023-02-07T04:24:17.261Z,9.27
2023-02-07T04:26:44.245Z,8.53
2023-02-07T04:29:11.199Z,9.20
2023-02-07T04:31:38.277Z,9.13
2023-02-07T04:34:06.016Z,9.20
2023-02-07T04:36:33.032Z,8.20
2023-02-07T04:38:59.990Z,8.70
2023-02-07T04:41:26.886Z,9.03
2023-02-07T04:43:53.825Z,9.73
2023-02-07T04:46:21.041Z,9.23
2023-02-07T04:48:50.620Z,9.40
2023-02-07T04:51:17.604Z,9.73
2023-02-07T04:53:44.608Z,9.17
2023-02-07T04:56:11.779Z,9.40
2023-02-07T04:58:38.838Z,9.17
2023-02-07T05:01:06.078Z,9.13
2023-02-07T05:03:33.137Z,9.37
2023-02-07T05:06:00.314Z,9.70
2023-02-07T05:08:27.259Z,10.90
2023-02-07T05:10:55.355Z,9.20
2023-02-07T05:13:23.505Z,8.40
2023-02-07T05:15:51.406Z,9.50
2023-02-07T05:18:18.949Z,9.53
2023-02-07T05:20:45.891Z,8.57
2023-02-07T05:23:13.016Z,9.63
2023-02-07T05:25:42.946Z,9.43
2023-02-07T05:28:10.430Z,9.90
2023-02-07T05:30:37.420Z,8.93
2023-02-07T05:33:07.065Z,9.10
2023-02-07T05:35:43.843Z,9.30
2023-02-07T05:38:14.494Z,9.70
2023-02-07T05:40:42.801Z,9.20
2023-02-07T05:43:12.742Z,9.70
2023-02-07T05:45:40.914Z,10.30
2023-02-07T05:48:08.431Z,9.87
2023-02-07T05:50:35.629Z,8.03
2023-02-07T05:53:03.181Z,9.60
2023-02-07T05:55:30.178Z,8.73
2023-02-07T05:57:57.445Z,10.07
2023-02-07T06:00:24.827Z,8.83
2023-02-07T06:02:51.992Z,9.20
2023-02-07T06:05:23.748Z,8.23
2023-02-07T06:07:52.048Z,8.10
2023-02-07T06:10:19.608Z,9.20
2023-02-07T06:12:46.628Z,10.50
2023-02-07T06:15:13.817Z,8.90
2023-02-07T06:17:40.722Z,8.43
2023-02-07T06:20:08.462Z,9.63
2023-02-07T06:22:35.422Z,9.20
2023-02-07T06:25:02.397Z,8.70
2023-02-07T06:27:29.555Z,9.90
2023-02-07T06:29:56.489Z,9.90
2023-02-07T06:32:23.372Z,9.80
2023-02-07T06:34:50.235Z,8.70
2023-02-07T06:37:17.183Z,10.10
2023-02-07T06:39:44.133Z,11.17
2023-02-07T06:42:11.107Z,9.63
2023-02-07T06:44:38.050Z,9.70
2023-02-07T06:47:05.480Z,9.40
2023-02-07T06:49:32.522Z,9.23
2023-02-07T06:51:59.401Z,9.80
2023-02-07T06:54:26.436Z,9.70
2023-02-07T06:56:53.334Z,9.63
2023-02-07T06:59:20.251Z,10.20
2023-02-07T07:01:49.379Z,8.80
2023-02-07T07:04:18.329Z,11.20
2023-02-07T07:06:45.272Z,9.90
2023-02-07T07:09:12.749Z,9.90
2023-02-07T07:11:43.131Z,10.70
2023-02-07T07:14:11.788Z,9.30
2023-02-07T07:16:40.826Z,10.90
2023-02-07T07:19:07.741Z,10.27
2023-02-07T07:21:35.491Z,10.33
2023-02-07T07:24:02.384Z,10.47
2023-02-07T07:26:36.652Z,11.40
2023-02-07T07:29:14.805Z,10.80
2023-02-07T07:31:41.981Z,10.53
2023-02-07T07:34:09.104Z,9.20
2023-02-07T07:36:36.172Z,9.63
2023-02-07T07:39:03.580Z,9.93
2023-02-07T07:41:30.728Z,10.53
2023-02-07T07:43:58.641Z,9.87
2023-02-07T07:46:25.872Z,10.33
2023-02-07T07:48:52.925Z,10.50
2023-02-07T07:51:20.120Z,9.87
2023-02-07T07:53:47.026Z,10.30
2023-02-07T07:56:14.106Z,10.10
2023-02-07T07:58:42.086Z,10.13
2023-02-07T08:01:09.110Z,9.77
2023-02-07T08:03:37.097Z,9.70
2023-02-07T08:06:04.194Z,10.00
2023-02-07T08:08:31.345Z,10.10
2023-02-07T08:11:02.690Z,10.00
2023-02-07T08:13:32.414Z,10.20
2023-02-07T08:16:01.043Z,9.60
2023-02-07T08:18:29.080Z,9.17
2023-02-07T08:20:56.655Z,10.20
2023-02-07T08:23:23.727Z,9.07
2023-02-07T08:25:50.987Z,9.20
2023-02-07T08:28:19.501Z,9.10
2023-02-07T08:30:49.802Z,9.40
2023-02-07T08:33:17.411Z,9.70
2023-02-07T08:35:45.103Z,8.60
2023-02-07T08:38:13.253Z,8.37
2023-02-07T08:40:40.569Z,8.77
2023-02-07T08:43:12.392Z,9.40
2023-02-07T08:45:41.357Z,9.60
2023-02-07T08:48:09.003Z,9.23
2023-02-07T08:50:35.959Z,9.20
2023-02-07T08:53:03.009Z,10.00
2023-02-07T08:55:30.744Z,9.03
2023-02-07T08:57:57.774Z,9.60
2023-02-07T09:00:24.943Z,8.67
2023-02-07T09:02:51.906Z,8.17
2023-02-07T09:05:19.098Z,9.20
2023-02-07T09:07:46.133Z,8.80
2023-02-07T09:10:13.244Z,8.40
2023-02-07T09:12:40.425Z,8.60
2023-02-07T09:15:08.016Z,8.97
2023-02-07T09:17:35.072Z,9.10
2023-02-07T09:20:02.127Z,7.83
2023-02-07T09:22:31.631Z,9.73
2023-02-07T09:24:59.275Z,8.80
2023-02-07T09:27:26.368Z,8.57
2023-02-07T09:29:53.229Z,8.83
2023-02-07T09:32:20.260Z,8.50
2023-02-07T09:34:47.435Z,8.20
2023-02-07T09:37:14.417Z,7.70
2023-02-07T09:39:44.500Z,7.17
2023-02-07T09:42:43.708Z,7.47
2023-02-07T09:45:17.241Z,8.20
2023-02-07T09:47:50.085Z,7.77
2023-02-07T09:50:31.928Z,8.03
2023-02-07T09:53:15.577Z,8.40
2023-02-07T09:56:04.745Z,8.77
2023-02-07T09:58:47.649Z,7.60
2023-02-07T10:01:22.832Z,8.43
2023-02-07T10:04:15.757Z,7.30
2023-02-07T10:06:47.829Z,6.80
2023-02-07T10:09:18.896Z,7.90
2023-02-07T10:12:11.346Z,8.20
2023-02-07T10:14:57.642Z,8.23
2023-02-07T10:17:35.439Z,6.70
2023-02-07T10:20:19.053Z,8.00
2023-02-07T10:23:25.808Z,8.30
2023-02-07T10:26:37.925Z,7.83
2023-02-07T10:29:17.634Z,7.90
2023-02-07T10:31:51.928Z,7.80
2023-02-07T10:34:23.887Z,8.40
2023-02-07T10:36:56.342Z,7.10
2023-02-07T10:39:36.171Z,7.70
2023-02-07T10:42:03.159Z,8.30
2023-02-07T10:44:30.376Z,6.90
2023-02-07T10:47:07.674Z,7.57
2023-02-07T10:49:37.713Z,7.40
2023-02-07T10:52:25.820Z,6.87
2023-02-07T10:55:00.146Z,8.90
2023-02-07T10:57:29.644Z,7.80
2023-02-07T11:00:04.213Z,7.33
2023-02-07T11:02:33.951Z,8.40
2023-02-07T11:05:15.414Z,7.57
2023-02-07T11:08:14.974Z,7.53
2023-02-07T11:10:45.204Z,8.10
2023-02-07T11:13:46.164Z,8.30
2023-02-07T11:16:17.843Z,7.50
2023-02-07T11:18:59.324Z,8.10
2023-02-07T11:21:34.072Z,7.40
2023-02-07T11:24:25.208Z,7.97
2023-02-07T11:27:18.757Z,8.67
2023-02-07T11:29:53.889Z,7.50
2023-02-07T11:32:24.511Z,8.83
2023-02-07T11:34:58.670Z,8.27
2023-02-07T11:37:33.110Z,9.40
2023-02-07T11:40:26.964Z,9.10
2023-02-07T11:43:35.368Z,7.80
2023-02-07T11:46:09.692Z,8.87
2023-02-07T11:48:40.162Z,8.90
2023-02-07T11:51:15.968Z,8.10
2023-02-07T11:54:03.248Z,8.70
2023-02-07T11:56:39.800Z,9.23
2023-02-07T11:59:15.445Z,8.30
2023-02-07T12:01:45.118Z,8.30
2023-02-07T12:04:24.950Z,8.07
2023-02-07T12:06:59.201Z,8.80
2023-02-07T12:09:38.001Z,10.50
2023-02-07T12:12:16.101Z,8.83
2023-02-07T12:15:00.719Z,8.70
2023-02-07T12:17:40.244Z,8.60
2023-02-07T12:20:28.091Z,9.30
2023-02-07T12:23:34.496Z,8.83
2023-02-07T12:25:58.545Z,9.40
2023-02-07T12:29:11.077Z,8.83
2023-02-07T12:31:57.676Z,8.80
2023-02-07T12:35:04.953Z,9.50
2023-02-07T12:37:42.650Z,8.53
2023-02-07T12:40:12.577Z,9.10
2023-02-07T12:43:02.710Z,9.57
2023-02-07T12:46:01.871Z,8.93
2023-02-07T12:48:37.646Z,9.10
2023-02-07T12:51:11.499Z,8.00
2023-02-07T12:54:13.778Z,8.60
2023-02-07T12:57:08.833Z,8.57
2023-02-07T13:00:04.009Z,6.80
2023-02-07T13:03:11.143Z,7.90
2023-02-07T13:05:50.313Z,7.13
2023-02-07T13:08:35.215Z,7.50
2023-02-07T13:11:13.973Z,7.00
2023-02-07T13:14:16.098Z,8.10
2023-02-07T13:17:26.598Z,6.70
2023-02-07T13:20:13.308Z,7.90
2023-02-07T13:22:59.262Z,8.03
2023-02-07T13:25:42.628Z,6.10
2023-02-07T13:28:26.542Z,6.60
2023-02-07T13:30:55.004Z,5.77
2023-02-07T13:33:33.452Z,6.80
2023-02-07T13:36:37.432Z,7.20
2023-02-07T13:39:30.945Z,7.10
2023-02-07T13:42:32.486Z,7.60
2023-02-07T13:45:12.236Z,6.53
2023-02-07T13:48:04.077Z,7.13
2023-02-07T13:51:19.169Z,8.80
2023-02-07T13:54:30.921Z,7.20
2023-02-07T13:57:19.724Z,7.03
2023-02-07T14:00:12.879Z,6.50
2023-02-07T14:03:01.467Z,5.70
2023-02-07T14:05:40.133Z,7.50
2023-02-07T14:08:24.857Z,6.53
2023-02-07T14:10:56.679Z,7.20
2023-02-07T14:13:34.989Z,7.47
2023-02-07T14:16:07.781Z,7.00
2023-02-07T14:18:51.865Z,7.10
2023-02-07T14:21:18.950Z,6.20
2023-02-07T14:24:10.390Z,6.83
2023-02-07T14:26:40.313Z,6.50
2023-02-07T14:29:51.384Z,6.87
2023-02-07T14:32:18.235Z,6.37
2023-02-07T14:35:27.601Z,6.50
2023-02-07T14:38:13.566Z,6.03
2023-02-07T14:40:43.490Z,6.00
2023-02-07T14:43:13.110Z,6.10
2023-02-07T14:45:52.098Z,6.00
2023-02-07T14:48:49.975Z,6.60
2023-02-07T14:51:47.496Z,6.13
2023-02-07T14:54:42.996Z,5.77
2023-02-07T14:57:24.676Z,6.30
2023-02-07T15:00:14.632Z,5.90
2023-02-07T15:02:58.453Z,6.40
2023-02-07T15:05:32.898Z,6.17
2023-02-07T15:08:02.835Z,5.73
2023-02-07T15:10:36.214Z,5.80
2023-02-07T15:13:35.348Z,5.67
2023-02-07T15:16:14.551Z,5.47
2023-02-07T15:19:25.545Z,5.67
2023-02-07T15:21:52.871Z,5.43
2023-02-07T15:24:51.445Z,5.70
2023-02-07T15:27:23.325Z,5.43
2023-02-07T15:30:02.827Z,6.40
2023-02-07T15:32:42.033Z,5.30
2023-02-07T15:35:22.434Z,5.23
2023-02-07T15:37:50.324Z,6.10
2023-02-07T15:40:24.935Z,6.07
2023-02-07T15:42:58.974Z,5.30
2023-02-07T15:45:31.083Z,5.93
2023-02-07T15:48:09.424Z,6.80
2023-02-07T15:50:38.125Z,5.90
2023-02-07T15:53:08.648Z,5.43
2023-02-07T15:55:46.891Z,6.20
2023-02-07T15:58:26.204Z,6.03
2023-02-07T16:01:01.353Z,6.03
2023-02-07T16:03:37.780Z,5.93
2023-02-07T16:06:11.084Z,6.20
2023-02-07T16:08:42.698Z,6.50
2023-02-07T16:11:27.856Z,6.20
2023-02-07T16:14:19.996Z,6.23
2023-02-07T16:16:57.097Z,6.27
2023-02-07T16:19:32.449Z,5.90
2023-02-07T16:22:10.202Z,5.67
2023-02-07T16:24:40.896Z,5.53
2023-02-07T16:27:10.086Z,6.37
2023-02-07T16:29:37.692Z,6.07
2023-02-07T16:32:05.040Z,6.60
2023-02-07T16:34:33.040Z,5.40
2023-02-07T16:37:00.085Z,6.50
2023-02-07T16:39:27.041Z,7.23
2023-02-07T16:42:05.355Z,6.17
2023-02-07T16:44:35.107Z,6.10
2023-02-07T16:47:02.107Z,5.60
2023-02-07T16:49:31.982Z,6.10
2023-02-07T16:52:00.578Z,6.63
2023-02-07T16:54:27.620Z,6.17
2023-02-07T16:56:57.926Z,5.70
2023-02-07T16:59:25.741Z,6.20
2023-02-07T17:01:54.119Z,6.80
2023-02-07T17:04:22.052Z,6.00
2023-02-07T17:06:49.704Z,6.80
2023-02-07T17:09:24.089Z,6.60
2023-02-07T17:11:53.037Z,6.80
2023-02-07T17:14:21.042Z,7.10
2023-02-07T17:16:48.617Z,6.60
2023-02-07T17:19:27.939Z,5.40
2023-02-07T17:21:56.653Z,6.43
2023-02-07T17:24:23.723Z,6.67
2023-02-07T17:26:54.482Z,5.87
2023-02-07T17:29:22.137Z,6.33
2023-02-07T17:31:49.686Z,6.40
2023-02-07T17:34:17.011Z,6.70
2023-02-07T17:36:48.617Z,6.30
2023-02-07T17:39:17.668Z,6.17
2023-02-07T17:41:45.000Z,5.90
2023-02-07T17:44:11.923Z,6.93
2023-02-07T17:46:38.963Z,5.80
2023-02-07T17:49:13.733Z,5.93
2023-02-07T17:51:40.658Z,6.50
2023-02-07T17:54:07.670Z,6.10
2023-02-07T17:56:35.033Z,5.60
2023-02-07T17:59:05.956Z,6.67
2023-02-07T18:01:33.906Z,7.20
2023-02-07T18:04:02.499Z,6.40
2023-02-07T18:06:30.368Z,6.00
2023-02-07T18:09:00.859Z,6.80
2023-02-07T18:11:28.724Z,6.80
2023-02-07T18:13:57.197Z,5.90
2023-02-07T18:16:26.696Z,7.00
2023-02-07T18:18:56.521Z,7.23
2023-02-07T18:21:24.110Z,7.47
2023-02-07T18:23:53.289Z,7.97
2023-02-07T18:26:20.405Z,7.70
2023-02-07T18:28:47.382Z,7.30
2023-02-07T18:31:22.785Z,7.30
2023-02-07T18:33:51.658Z,7.30
2023-02-07T18:36:23.481Z,7.30
2023-02-07T18:38:50.913Z,7.73
2023-02-07T18:41:23.050Z,6.53
2023-02-07T18:43:50.474Z,8.10
2023-02-07T18:46:20.246Z,8.27
2023-02-07T18:48:51.109Z,7.33
2023-02-07T18:51:19.478Z,7.87
2023-02-07T18:53:47.101Z,9.00
2023-02-07T18:56:20.778Z,8.07
2023-02-07T18:58:48.048Z,8.27
2023-02-07T19:01:20.348Z,8.40
2023-02-07T19:03:54.114Z,7.77
2023-02-07T19:06:28.820Z,9.00
2023-02-07T19:08:57.818Z,8.00
2023-02-07T19:11:25.006Z,9.13
2023-02-07T19:13:52.070Z,9.07
2023-02-07T19:16:23.624Z,9.73
2023-02-07T19:18:50.866Z,9.10
2023-02-07T19:21:23.739Z,9.50
2023-02-07T19:23:51.160Z,10.20
2023-02-07T19:26:18.169Z,9.37
2023-02-07T19:28:46.466Z,9.90
2023-02-07T19:31:18.222Z,10.97
2023-02-07T19:33:50.600Z,10.33
2023-02-07T19:36:18.972Z,11.17
2023-02-07T19:38:48.578Z,10.97
2023-02-07T19:41:19.203Z,10.03
2023-02-07T19:43:46.437Z,10.53
2023-02-07T19:46:13.516Z,10.40
2023-02-07T19:48:40.470Z,10.40
2023-02-07T19:51:10.997Z,9.77
2023-02-07T19:53:38.295Z,10.17
2023-02-07T19:56:11.343Z,9.53
2023-02-07T19:58:45.009Z,10.40
2023-02-07T20:01:12.869Z,9.27
2023-02-07T20:03:41.327Z,9.87
2023-02-07T20:06:12.273Z,11.03
2023-02-07T20:08:41.022Z,10.20
2023-02-07T20:11:12.142Z,10.70
2023-02-07T20:13:42.873Z,9.43
2023-02-07T20:16:14.052Z,9.70
2023-02-07T20:18:41.444Z,10.10
2023-02-07T20:21:14.296Z,9.37
2023-02-07T20:23:44.177Z,9.80
2023-02-07T20:26:21.851Z,10.70
2023-02-07T20:28:50.154Z,9.13
2023-02-07T20:31:21.627Z,9.40
2023-02-07T20:33:48.680Z,9.10
2023-02-07T20:36:17.536Z,8.20
2023-02-07T20:38:46.013Z,8.23
2023-02-07T20:41:29.485Z,9.37
2023-02-07T20:44:04.913Z,9.47
2023-02-07T20:46:35.861Z,9.40
2023-02-07T20:49:11.203Z,9.60
2023-02-07T20:51:38.766Z,9.17
2023-02-07T20:54:07.150Z,8.17
2023-02-07T20:56:34.940Z,8.77
2023-02-07T20:59:01.926Z,8.47
2023-02-07T21:01:32.683Z,8.93
2023-02-07T21:04:03.345Z,8.60
2023-02-07T21:06:31.191Z,8.83
2023-02-07T21:09:02.107Z,9.50
2023-02-07T21:11:36.324Z,9.77
2023-02-07T21:14:05.400Z,9.80
2023-02-07T21:16:33.191Z,9.00
2023-02-07T21:19:01.360Z,8.83
2023-02-07T21:21:29.218Z,9.07
2023-02-07T21:23:57.516Z,7.90
2023-02-07T21:26:26.621Z,8.57
2023-02-07T21:29:01.210Z,8.73
2023-02-07T21:31:29.790Z,9.80
2023-02-07T21:33:57.339Z,9.23
2023-02-07T21:36:30.509Z,8.50
2023-02-07T21:39:02.773Z,9.07
2023-02-07T21:41:30.616Z,8.50
2023-02-07T21:43:59.236Z,8.80
2023-02-07T21:46:34.287Z,8.70
2023-02-07T21:49:08.627Z,8.90
2023-02-07T21:51:36.390Z,9.33
2023-02-07T21:54:07.471Z,8.57
2023-02-07T21:56:38.376Z,9.27
2023-02-07T21:59:15.562Z,8.57
2023-02-07T22:01:44.013Z,7.70
2023-02-07T22:04:11.917Z,9.67
2023-02-07T22:06:42.203Z,9.30
2023-02-07T22:09:13.257Z,9.70
2023-02-07T22:11:40.271Z,9.70
2023-02-07T22:14:07.654Z,9.60
2023-02-07T22:16:35.080Z,10.00
2023-02-07T22:19:04.722Z,8.93
2023-02-07T22:21:35.214Z,9.20
2023-02-07T22:24:03.957Z,9.20
2023-02-07T22:26:32.708Z,9.13
2023-02-07T22:28:59.903Z,8.77
2023-02-07T22:31:30.001Z,9.10
2023-02-07T22:34:04.896Z,8.53
2023-02-07T22:36:35.585Z,8.03
2023-02-07T22:39:05.046Z,8.90
2023-02-07T22:41:33.217Z,7.80
2023-02-07T22:44:01.396Z,8.50
2023-02-07T22:46:29.202Z,7.83
2023-02-07T22:48:56.886Z,8.40
2023-02-07T22:51:32.305Z,9.83
2023-02-07T22:54:05.473Z,9.50
2023-02-07T22:56:36.238Z,8.50
2023-02-07T22:59:03.808Z,8.80
2023-02-07T23:01:34.615Z,9.83
2023-02-07T23:04:04.000Z,10.47
2023-02-07T23:06:32.659Z,9.10
2023-02-07T23:09:01.488Z,10.00
2023-02-07T23:11:28.537Z,8.50
2023-02-07T23:13:55.535Z,9.87
2023-02-07T23:16:25.293Z,8.33
2023-02-07T23:18:56.261Z,8.33
2023-02-07T23:21:26.093Z,8.23
2023-02-07T23:23:53.542Z,9.93
2023-02-07T23:26:23.362Z,9.17
2023-02-07T23:28:52.080Z,8.07
2023-02-07T23:31:23.746Z,8.57
2023-02-07T23:33:52.405Z,8.13
2023-02-07T23:36:20.092Z,8.17
2023-02-07T23:38:47.981Z,8.50
2023-02-07T23:41:15.776Z,8.37
2023-02-07T23:43:43.289Z,8.70
2023-02-07T23:46:10.823Z,8.87
2023-02-07T23:48:39.066Z,8.60
2023-02-07T23:51:07.097Z,8.83
2023-02-07T23:53:34.725Z,8.53
2023-02-07T23:56:03.753Z,9.47
2023-02-07T23:58:31.590Z,8.60
